createdAt,value
2018-04-01T00:00:16.681Z,8.94
2018-04-01T00:01:16.694Z,8.94
2018-04-01T00:02:16.694Z,8.93
2018-04-01T00:03:16.743Z,8.92
2018-04-01T00:04:16.692Z,8.92
2018-04-01T00:05:16.667Z,8.93
2018-04-01T00:06:16.659Z,8.93
2018-04-01T00:07:16.701Z,8.93
2018-04-01T00:08:16.666Z,8.94
2018-04-01T00:09:16.681Z,8.94
2018-04-01T00:10:16.670Z,8.94
2018-04-01T00:11:16.682Z,8.96
2018-04-01T00:12:16.695Z,8.97
2018-04-01T00:13:16.710Z,8.98
2018-04-01T00:14:16.675Z,8.99
2018-04-01T00:15:16.978Z,8.98
2018-04-01T00:16:16.690Z,8.99
2018-04-01T00:17:16.699Z,8.98
2018-04-01T00:18:16.668Z,8.97
2018-04-01T00:19:16.762Z,8.96
2018-04-01T00:20:16.678Z,8.95
2018-04-01T00:21:16.677Z,8.98
2018-04-01T00:22:16.712Z,8.97
2018-04-01T00:23:16.674Z,8.98
2018-04-01T00:24:16.710Z,8.97
2018-04-01T00:25:16.679Z,8.97
2018-04-01T00:26:16.706Z,8.97
2018-04-01T00:27:16.693Z,8.95
2018-04-01T00:28:16.700Z,8.95
2018-04-01T00:29:16.710Z,8.96
2018-04-01T00:30:16.685Z,8.97
2018-04-01T00:31:16.701Z,8.97
2018-04-01T00:32:16.715Z,8.98
2018-04-01T00:33:16.676Z,8.96
2018-04-01T00:34:16.784Z,8.95
2018-04-01T00:35:16.719Z,8.94
2018-04-01T00:36:16.753Z,8.93
2018-04-01T00:37:16.712Z,8.93
2018-04-01T00:38:16.705Z,8.92
2018-04-01T00:39:16.683Z,8.89
2018-04-01T00:40:16.725Z,8.9
2018-04-01T00:41:16.965Z,8.91
2018-04-01T00:42:16.680Z,8.89
2018-04-01T00:43:16.732Z,8.91
2018-04-01T00:44:16.691Z,8.88
2018-04-01T00:45:16.688Z,8.91
2018-04-01T00:46:16.693Z,8.91
2018-04-01T00:47:16.719Z,8.88
2018-04-01T00:48:16.703Z,8.87
2018-04-01T00:49:16.694Z,8.9
2018-04-01T00:50:16.699Z,8.86
2018-04-01T00:51:16.706Z,8.86
2018-04-01T00:52:16.735Z,8.87
2018-04-01T00:53:16.710Z,8.86
2018-04-01T00:54:16.715Z,8.87
2018-04-01T00:55:16.689Z,8.87
2018-04-01T00:56:16.702Z,8.84
2018-04-01T00:57:16.701Z,8.84
2018-04-01T00:58:16.738Z,8.84
2018-04-01T00:59:16.706Z,8.81
2018-04-01T01:00:16.712Z,8.83
2018-04-01T01:01:16.730Z,8.82
2018-04-01T01:02:16.711Z,8.83
2018-04-01T01:03:17.165Z,8.8
2018-04-01T01:04:16.795Z,8.8
2018-04-01T01:05:16.814Z,8.79
2018-04-01T01:06:16.715Z,8.74
2018-04-01T01:07:16.781Z,8.72
2018-04-01T01:08:16.850Z,8.73
2018-04-01T01:09:16.720Z,8.75
2018-04-01T01:10:16.739Z,8.71
2018-04-01T01:11:16.708Z,8.71
2018-04-01T01:12:16.734Z,8.74
2018-04-01T01:13:16.713Z,8.69
2018-04-01T01:14:16.687Z,8.72
2018-04-01T01:15:16.718Z,8.72
2018-04-01T01:16:16.686Z,8.71
2018-04-01T01:17:16.734Z,8.69
2018-04-01T01:18:16.732Z,8.71
2018-04-01T01:19:16.719Z,8.68
2018-04-01T01:20:16.800Z,8.66
2018-04-01T01:21:16.704Z,8.67
2018-04-01T01:22:16.814Z,8.67
2018-04-01T01:23:16.683Z,8.67
2018-04-01T01:24:16.735Z,8.69
2018-04-01T01:25:16.739Z,8.66
2018-04-01T01:26:16.748Z,8.65
2018-04-01T01:27:16.713Z,8.67
2018-04-01T01:28:16.699Z,8.65
2018-04-01T01:29:16.716Z,8.66
2018-04-01T01:30:16.693Z,8.67
2018-04-01T01:31:16.708Z,8.67
2018-04-01T01:32:16.745Z,8.68
2018-04-01T01:33:16.741Z,8.67
2018-04-01T01:34:16.717Z,8.66
2018-04-01T01:35:16.717Z,8.67
2018-04-01T01:36:16.857Z,8.68
2018-04-01T01:37:16.740Z,8.68
2018-04-01T01:38:16.747Z,8.67
2018-04-01T01:39:16.766Z,8.68
2018-04-01T01:40:16.716Z,8.73
2018-04-01T01:41:16.721Z,8.69
2018-04-01T01:42:16.714Z,8.71
2018-04-01T01:43:16.735Z,8.68
2018-04-01T01:44:16.714Z,8.72
2018-04-01T01:45:16.703Z,8.72
2018-04-01T01:46:16.715Z,8.69
2018-04-01T01:47:16.722Z,8.67
2018-04-01T01:48:16.830Z,8.7
2018-04-01T01:49:16.730Z,8.66
2018-04-01T01:50:16.756Z,8.7
2018-04-01T01:51:16.716Z,8.67
2018-04-01T01:52:16.721Z,8.66
2018-04-01T01:53:16.698Z,8.66
2018-04-01T01:54:16.707Z,8.67
2018-04-01T01:55:16.733Z,8.71
2018-04-01T01:56:16.723Z,8.68
2018-04-01T01:57:16.758Z,8.67
2018-04-01T01:58:16.720Z,8.67
2018-04-01T01:59:16.709Z,8.67
2018-04-01T02:00:16.754Z,8.67
2018-04-01T02:01:16.711Z,8.68
2018-04-01T02:02:16.713Z,8.67
2018-04-01T02:03:16.717Z,8.68
2018-04-01T02:04:16.734Z,8.65
2018-04-01T02:05:17.107Z,8.66
2018-04-01T02:06:16.735Z,8.65
2018-04-01T02:07:16.844Z,8.68
2018-04-01T02:08:16.711Z,8.67
2018-04-01T02:09:16.733Z,8.65
2018-04-01T02:10:16.742Z,8.65
2018-04-01T02:11:16.758Z,8.65
2018-04-01T02:12:16.729Z,8.62
2018-04-01T02:13:16.716Z,8.62
2018-04-01T02:14:16.735Z,8.61
2018-04-01T02:15:16.716Z,8.55
2018-04-01T02:16:16.708Z,8.52
2018-04-01T02:17:16.729Z,8.48
2018-04-01T02:18:16.740Z,8.49
2018-04-01T02:19:16.709Z,8.47
2018-04-01T02:20:16.734Z,8.48
2018-04-01T02:21:16.759Z,8.43
2018-04-01T02:22:16.720Z,8.43
2018-04-01T02:23:16.732Z,8.4
2018-04-01T02:24:16.747Z,8.42
2018-04-01T02:25:16.748Z,8.4
2018-04-01T02:26:16.870Z,8.36
2018-04-01T02:27:16.737Z,8.35
2018-04-01T02:28:16.722Z,8.35
2018-04-01T02:29:16.725Z,8.36
2018-04-01T02:30:16.733Z,8.34
2018-04-01T02:31:16.807Z,8.35
2018-04-01T02:32:16.727Z,8.39
2018-04-01T02:33:16.746Z,8.41
2018-04-01T02:34:16.739Z,8.44
2018-04-01T02:35:16.787Z,8.44
2018-04-01T02:36:16.775Z,8.46
2018-04-01T02:37:16.754Z,8.49
2018-04-01T02:38:16.886Z,8.46
2018-04-01T02:39:16.777Z,8.4
2018-04-01T02:40:16.722Z,8.4
2018-04-01T02:41:16.856Z,8.35
2018-04-01T02:42:16.877Z,8.36
2018-04-01T02:43:16.737Z,8.31
2018-04-01T02:44:16.830Z,8.31
2018-04-01T02:45:16.773Z,8.31
2018-04-01T02:46:16.801Z,8.35
2018-04-01T02:47:16.781Z,8.34
2018-04-01T02:48:16.743Z,8.32
2018-04-01T02:49:16.783Z,8.3
2018-04-01T02:50:16.747Z,8.31
2018-04-01T02:51:16.746Z,8.31
2018-04-01T02:52:16.785Z,8.22
2018-04-01T02:53:16.763Z,8.24
2018-04-01T02:54:16.952Z,8.23
2018-04-01T02:55:16.784Z,8.24
2018-04-01T02:56:16.762Z,8.21
2018-04-01T02:57:16.758Z,8.19
2018-04-01T02:58:16.784Z,8.18
2018-04-01T02:59:16.799Z,8.19
2018-04-01T03:00:16.784Z,8.2
2018-04-01T03:01:16.754Z,8.19
2018-04-01T03:02:16.753Z,8.18
2018-04-01T03:03:16.858Z,8.19
2018-04-01T03:04:16.759Z,8.2
2018-04-01T03:05:16.821Z,8.2
2018-04-01T03:06:16.821Z,8.2
2018-04-01T03:07:16.840Z,8.23
2018-04-01T03:08:16.752Z,8.24
2018-04-01T03:09:16.820Z,8.13
2018-04-01T03:10:16.767Z,8.13
2018-04-01T03:11:16.761Z,8.11
2018-04-01T03:12:16.737Z,8.13
2018-04-01T03:13:16.788Z,8.12
2018-04-01T03:14:16.748Z,8.12
2018-04-01T03:15:16.746Z,8.12
2018-04-01T03:16:16.740Z,8.13
2018-04-01T03:17:16.762Z,8.09
2018-04-01T03:18:16.779Z,8.11
2018-04-01T03:19:16.773Z,8.12
2018-04-01T03:20:16.774Z,8.12
2018-04-01T03:21:16.751Z,8.12
2018-04-01T03:22:16.758Z,8.12
2018-04-01T03:23:16.775Z,8.12
2018-04-01T03:24:16.788Z,8.12
2018-04-01T03:25:16.748Z,8.12
2018-04-01T03:26:16.762Z,8.12
2018-04-01T03:27:16.774Z,8.11
2018-04-01T03:28:16.787Z,8.11
2018-04-01T03:29:16.750Z,8.09
2018-04-01T03:30:16.781Z,8.1
2018-04-01T03:31:17.034Z,8.08
2018-04-01T03:32:16.743Z,8.05
2018-04-01T03:33:16.805Z,8.07
2018-04-01T03:34:16.759Z,8.05
2018-04-01T03:35:16.781Z,8.03
2018-04-01T03:36:16.800Z,8
2018-04-01T03:37:16.760Z,8
2018-04-01T03:38:16.752Z,8.02
2018-04-01T03:39:16.755Z,8.01
2018-04-01T03:40:16.845Z,8
2018-04-01T03:41:16.785Z,7.99
2018-04-01T03:42:16.758Z,7.97
2018-04-01T03:43:16.774Z,7.98
2018-04-01T03:44:16.827Z,8
2018-04-01T03:45:16.778Z,8
2018-04-01T03:46:16.796Z,8.02
2018-04-01T03:47:16.771Z,7.96
2018-04-01T03:48:16.799Z,7.97
2018-04-01T03:49:16.742Z,7.94
2018-04-01T03:50:16.761Z,7.93
2018-04-01T03:51:16.764Z,7.95
2018-04-01T03:52:16.757Z,7.95
2018-04-01T03:53:16.781Z,7.91
2018-04-01T03:54:16.818Z,7.91
2018-04-01T03:55:16.777Z,7.91
2018-04-01T03:56:16.764Z,7.9
2018-04-01T03:57:16.768Z,7.91
2018-04-01T03:58:16.796Z,7.91
2018-04-01T03:59:16.810Z,7.89
2018-04-01T04:00:16.765Z,7.87
2018-04-01T04:01:16.775Z,7.87
2018-04-01T04:02:16.771Z,7.87
2018-04-01T04:03:16.770Z,7.88
2018-04-01T04:04:16.762Z,7.9
2018-04-01T04:05:16.845Z,7.88
2018-04-01T04:06:16.778Z,7.89
2018-04-01T04:07:16.763Z,7.87
2018-04-01T04:08:17.336Z,7.88
2018-04-01T04:09:16.786Z,7.92
2018-04-01T04:10:16.784Z,7.92
2018-04-01T04:11:16.836Z,7.9
2018-04-01T04:12:16.809Z,7.9
2018-04-01T04:13:16.777Z,7.88
2018-04-01T04:14:16.782Z,7.91
2018-04-01T04:15:16.798Z,7.9
2018-04-01T04:16:16.763Z,7.88
2018-04-01T04:17:16.871Z,7.88
2018-04-01T04:18:16.769Z,7.92
2018-04-01T04:19:16.791Z,7.91
2018-04-01T04:20:16.769Z,7.92
2018-04-01T04:21:16.766Z,7.92
2018-04-01T04:22:16.834Z,7.94
2018-04-01T04:23:16.817Z,7.93
2018-04-01T04:24:16.764Z,7.9
2018-04-01T04:25:16.786Z,7.87
2018-04-01T04:26:16.796Z,7.86
2018-04-01T04:27:16.789Z,7.88
2018-04-01T04:28:16.770Z,7.88
2018-04-01T04:29:16.786Z,7.86
2018-04-01T04:30:16.785Z,7.85
2018-04-01T04:31:16.753Z,7.85
2018-04-01T04:32:16.803Z,7.84
2018-04-01T04:33:16.804Z,7.86
2018-04-01T04:34:16.786Z,7.8
2018-04-01T04:35:16.765Z,7.8
2018-04-01T04:36:16.781Z,7.78
2018-04-01T04:37:16.798Z,7.8
2018-04-01T04:38:16.756Z,7.82
2018-04-01T04:39:16.769Z,7.81
2018-04-01T04:40:16.815Z,7.8
2018-04-01T04:41:16.866Z,7.77
2018-04-01T04:42:16.980Z,7.76
2018-04-01T04:43:16.793Z,7.79
2018-04-01T04:44:16.774Z,7.8
2018-04-01T04:45:16.791Z,7.8
2018-04-01T04:46:16.813Z,7.81
2018-04-01T04:47:17.099Z,7.8
2018-04-01T04:48:16.766Z,7.81
2018-04-01T04:49:16.774Z,7.82
2018-04-01T04:50:16.780Z,7.79
2018-04-01T04:51:16.803Z,7.78
2018-04-01T04:52:16.827Z,7.76
2018-04-01T04:53:16.803Z,7.76
2018-04-01T04:54:16.807Z,7.73
2018-04-01T04:55:16.824Z,7.73
2018-04-01T04:56:16.828Z,7.74
2018-04-01T04:57:17.672Z,7.77
2018-04-01T04:58:16.765Z,7.75
2018-04-01T04:59:16.790Z,7.75
2018-04-01T05:00:16.817Z,7.76
2018-04-01T05:01:16.889Z,7.78
2018-04-01T05:02:16.775Z,7.78
2018-04-01T05:03:16.785Z,7.73
2018-04-01T05:04:16.843Z,7.72
2018-04-01T05:05:16.784Z,7.7
2018-04-01T05:06:17.106Z,7.72
2018-04-01T05:07:16.789Z,7.68
2018-04-01T05:08:16.795Z,7.67
2018-04-01T05:09:16.774Z,7.66
2018-04-01T05:10:16.799Z,7.68
2018-04-01T05:11:16.849Z,7.69
2018-04-01T05:12:16.799Z,7.68
2018-04-01T05:13:16.848Z,7.69
2018-04-01T05:14:16.828Z,7.7
2018-04-01T05:15:16.810Z,7.72
2018-04-01T05:16:16.969Z,7.72
2018-04-01T05:17:16.796Z,7.74
2018-04-01T05:18:16.821Z,7.75
2018-04-01T05:19:16.875Z,7.73
2018-04-01T05:20:16.797Z,7.75
2018-04-01T05:21:16.797Z,7.75
2018-04-01T05:22:16.783Z,7.79
2018-04-01T05:23:16.804Z,7.79
2018-04-01T05:24:16.820Z,7.8
2018-04-01T05:25:16.807Z,7.78
2018-04-01T05:26:16.845Z,7.79
2018-04-01T05:27:16.802Z,7.78
2018-04-01T05:28:17.091Z,7.76
2018-04-01T05:29:16.795Z,7.78
2018-04-01T05:30:16.841Z,7.77
2018-04-01T05:31:16.811Z,7.75
2018-04-01T05:32:16.814Z,7.75
2018-04-01T05:33:16.810Z,7.73
2018-04-01T05:34:16.822Z,7.72
2018-04-01T05:35:17.070Z,7.72
2018-04-01T05:36:16.779Z,7.69
2018-04-01T05:37:16.785Z,7.68
2018-04-01T05:38:16.791Z,7.68
2018-04-01T05:39:16.807Z,7.66
2018-04-01T05:40:16.817Z,7.65
2018-04-01T05:41:16.804Z,7.6
2018-04-01T05:42:16.844Z,7.59
2018-04-01T05:43:16.824Z,7.6
2018-04-01T05:44:16.970Z,7.57
2018-04-01T05:45:16.882Z,7.6
2018-04-01T05:46:16.948Z,7.62
2018-04-01T05:47:16.925Z,7.62
2018-04-01T05:48:16.960Z,7.62
2018-04-01T05:49:16.966Z,7.63
2018-04-01T05:50:16.803Z,7.66
2018-04-01T05:51:16.831Z,7.63
2018-04-01T05:52:16.828Z,7.67
2018-04-01T05:53:16.824Z,7.64
2018-04-01T05:54:16.799Z,7.66
2018-04-01T05:55:16.814Z,7.68
2018-04-01T05:56:16.867Z,7.68
2018-04-01T05:57:16.829Z,7.72
2018-04-01T05:58:16.797Z,7.68
2018-04-01T05:59:16.798Z,7.67
2018-04-01T06:00:16.808Z,7.71
2018-04-01T06:01:16.815Z,7.73
2018-04-01T06:02:16.833Z,7.7
2018-04-01T06:03:16.850Z,7.73
2018-04-01T06:04:16.800Z,7.73
2018-04-01T06:05:16.799Z,7.7
2018-04-01T06:06:16.857Z,7.72
2018-04-01T06:07:16.828Z,7.71
2018-04-01T06:08:17.179Z,7.73
2018-04-01T06:09:16.817Z,7.7
2018-04-01T06:10:16.814Z,7.71
2018-04-01T06:11:16.817Z,7.69
2018-04-01T06:12:17.148Z,7.7
2018-04-01T06:13:16.949Z,7.71
2018-04-01T06:14:16.793Z,7.69
2018-04-01T06:15:16.911Z,7.72
2018-04-01T06:16:16.805Z,7.73
2018-04-01T06:17:16.830Z,7.73
2018-04-01T06:18:17.144Z,7.74
2018-04-01T06:19:16.818Z,7.74
2018-04-01T06:20:16.856Z,7.75
2018-04-01T06:21:16.797Z,7.78
2018-04-01T06:22:16.792Z,7.81
2018-04-01T06:23:16.833Z,7.83
2018-04-01T06:24:17.178Z,7.87
2018-04-01T06:25:16.877Z,7.87
2018-04-01T06:26:16.820Z,7.91
2018-04-01T06:27:16.838Z,7.88
2018-04-01T06:28:16.803Z,7.91
2018-04-01T06:29:16.840Z,7.91
2018-04-01T06:30:16.814Z,7.92
2018-04-01T06:31:16.804Z,7.93
2018-04-01T06:32:16.823Z,7.93
2018-04-01T06:33:16.818Z,7.91
2018-04-01T06:34:16.816Z,7.92
2018-04-01T06:35:16.849Z,7.91
2018-04-01T06:36:16.814Z,7.91
2018-04-01T06:37:16.839Z,7.92
2018-04-01T06:38:16.813Z,7.92
2018-04-01T06:39:16.849Z,7.94
2018-04-01T06:40:16.815Z,7.97
2018-04-01T06:41:16.867Z,7.96
2018-04-01T06:42:16.840Z,7.94
2018-04-01T06:43:16.807Z,7.96
2018-04-01T06:44:16.850Z,7.95
2018-04-01T06:45:16.849Z,7.97
2018-04-01T06:46:16.947Z,7.94
2018-04-01T06:47:16.824Z,7.93
2018-04-01T06:48:16.844Z,7.95
2018-04-01T06:49:16.804Z,7.98
2018-04-01T06:50:16.841Z,8
2018-04-01T06:51:16.868Z,7.99
2018-04-01T06:52:16.850Z,8
2018-04-01T06:53:16.848Z,8
2018-04-01T06:54:16.840Z,8.01
2018-04-01T06:55:16.850Z,8.03
2018-04-01T06:56:17.023Z,8.03
2018-04-01T06:57:16.937Z,8.04
2018-04-01T06:58:16.930Z,8.05
2018-04-01T06:59:16.928Z,8.05
2018-04-01T07:00:17.006Z,8.06
2018-04-01T07:01:16.967Z,8.06
2018-04-01T07:02:16.881Z,8.07
2018-04-01T07:03:16.823Z,8.06
2018-04-01T07:04:16.835Z,8.05
2018-04-01T07:05:16.903Z,8.04
2018-04-01T07:06:16.840Z,8.04
2018-04-01T07:07:16.831Z,8.05
2018-04-01T07:08:16.884Z,8.04
2018-04-01T07:09:16.904Z,8.05
2018-04-01T07:10:16.848Z,8.08
2018-04-01T07:11:16.854Z,8.03
2018-04-01T07:12:16.859Z,7.99
2018-04-01T07:13:16.903Z,8.01
2018-04-01T07:14:16.851Z,8
2018-04-01T07:15:16.839Z,7.98
2018-04-01T07:16:16.834Z,7.96
2018-04-01T07:17:16.902Z,7.93
2018-04-01T07:18:16.809Z,7.93
2018-04-01T07:19:16.868Z,7.93
2018-04-01T07:20:16.849Z,7.9
2018-04-01T07:21:16.835Z,7.87
2018-04-01T07:22:16.873Z,7.84
2018-04-01T07:23:16.843Z,7.86
2018-04-01T07:24:16.912Z,7.88
2018-04-01T07:25:16.894Z,7.89
2018-04-01T07:26:16.853Z,7.88
2018-04-01T07:27:16.817Z,7.85
2018-04-01T07:28:17.154Z,7.84
2018-04-01T07:29:16.833Z,7.85
2018-04-01T07:30:16.840Z,7.85
2018-04-01T07:31:16.843Z,7.79
2018-04-01T07:32:16.820Z,7.81
2018-04-01T07:33:16.878Z,7.79
2018-04-01T07:34:16.967Z,7.79
2018-04-01T07:35:16.853Z,7.77
2018-04-01T07:36:17.306Z,7.79
2018-04-01T07:37:16.838Z,7.79
2018-04-01T07:38:16.887Z,7.8
2018-04-01T07:39:16.833Z,7.78
2018-04-01T07:40:16.862Z,7.79
2018-04-01T07:41:16.850Z,7.8
2018-04-01T07:42:16.900Z,7.84
2018-04-01T07:43:16.873Z,7.82
2018-04-01T07:44:16.864Z,7.83
2018-04-01T07:45:16.848Z,7.81
2018-04-01T07:46:16.830Z,7.81
2018-04-01T07:47:16.896Z,7.83
2018-04-01T07:48:16.934Z,7.85
2018-04-01T07:49:16.836Z,7.85
2018-04-01T07:50:16.910Z,7.87
2018-04-01T07:51:16.855Z,7.87
2018-04-01T07:52:16.832Z,7.88
2018-04-01T07:53:16.830Z,7.87
2018-04-01T07:54:16.909Z,7.89
2018-04-01T07:55:16.846Z,7.9
2018-04-01T07:56:16.849Z,7.93
2018-04-01T07:57:16.901Z,7.97
2018-04-01T07:58:16.858Z,7.97
2018-04-01T07:59:16.839Z,7.99
2018-04-01T08:00:16.848Z,8
2018-04-01T08:01:16.857Z,7.98
2018-04-01T08:02:16.837Z,7.92
2018-04-01T08:03:16.847Z,7.89
2018-04-01T08:04:17.092Z,7.91
2018-04-01T08:05:16.909Z,7.96
2018-04-01T08:06:16.830Z,7.98
2018-04-01T08:07:16.854Z,8
2018-04-01T08:08:16.880Z,8.05
2018-04-01T08:09:16.861Z,8.03
2018-04-01T08:10:16.865Z,8.05
2018-04-01T08:11:16.878Z,8.05
2018-04-01T08:12:16.915Z,8.08
2018-04-01T08:13:16.861Z,8.11
2018-04-01T08:14:16.880Z,8.06
2018-04-01T08:15:16.869Z,8.09
2018-04-01T08:16:16.904Z,8.12
2018-04-01T08:17:16.951Z,8.17
2018-04-01T08:18:16.908Z,8.16
2018-04-01T08:19:16.959Z,8.17
2018-04-01T08:20:16.861Z,8.15
2018-04-01T08:21:16.857Z,8.22
2018-04-01T08:22:16.871Z,8.23
2018-04-01T08:23:16.850Z,8.23
2018-04-01T08:24:17.000Z,8.24
2018-04-01T08:25:16.886Z,8.28
2018-04-01T08:26:16.860Z,8.28
2018-04-01T08:27:16.871Z,8.31
2018-04-01T08:28:16.874Z,8.32
2018-04-01T08:29:16.882Z,8.37
2018-04-01T08:30:16.968Z,8.38
2018-04-01T08:31:16.890Z,8.42
2018-04-01T08:32:16.897Z,8.43
2018-04-01T08:33:16.885Z,8.48
2018-04-01T08:34:17.237Z,8.48
2018-04-01T08:35:16.891Z,8.47
2018-04-01T08:36:17.199Z,8.47
2018-04-01T08:37:16.866Z,8.48
2018-04-01T08:38:16.851Z,8.49
2018-04-01T08:39:16.872Z,8.46
2018-04-01T08:40:16.874Z,8.46
2018-04-01T08:41:16.900Z,8.46
2018-04-01T08:42:16.872Z,8.44
2018-04-01T08:43:16.891Z,8.4
2018-04-01T08:44:16.875Z,8.41
2018-04-01T08:45:16.889Z,8.37
2018-04-01T08:46:16.987Z,8.3
2018-04-01T08:47:16.871Z,8.34
2018-04-01T08:48:16.876Z,8.3
2018-04-01T08:49:16.884Z,8.26
2018-04-01T08:50:16.941Z,8.22
2018-04-01T08:51:16.871Z,8.16
2018-04-01T08:52:16.911Z,8.17
2018-04-01T08:53:17.203Z,8.19
2018-04-01T08:54:16.874Z,8.17
2018-04-01T08:55:16.885Z,8.13
2018-04-01T08:56:17.227Z,8.15
2018-04-01T08:57:16.926Z,8.1
2018-04-01T08:58:16.852Z,8.11
2018-04-01T08:59:17.040Z,8.13
2018-04-01T09:00:16.890Z,8.17
2018-04-01T09:01:16.898Z,8.14
2018-04-01T09:02:16.870Z,8.1
2018-04-01T09:03:16.880Z,8.12
2018-04-01T09:04:16.873Z,8.11
2018-04-01T09:05:16.867Z,8.15
2018-04-01T09:06:18.202Z,8.18
2018-04-01T09:07:16.881Z,8.22
2018-04-01T09:08:16.870Z,8.25
2018-04-01T09:09:17.538Z,8.27
2018-04-01T09:10:16.914Z,8.31
2018-04-01T09:11:17.173Z,8.34
2018-04-01T09:12:17.641Z,8.38
2018-04-01T09:13:16.904Z,8.42
2018-04-01T09:14:17.024Z,8.43
2018-04-01T09:15:16.876Z,8.46
2018-04-01T09:16:16.882Z,8.47
2018-04-01T09:17:17.007Z,8.53
2018-04-01T09:18:16.992Z,8.56
2018-04-01T09:19:16.885Z,8.56
2018-04-01T09:20:16.880Z,8.56
2018-04-01T09:21:16.935Z,8.61
2018-04-01T09:22:17.444Z,8.58
2018-04-01T09:23:16.870Z,8.6
2018-04-01T09:24:16.897Z,8.62
2018-04-01T09:25:16.859Z,8.59
2018-04-01T09:26:16.991Z,8.61
2018-04-01T09:27:17.158Z,8.6
2018-04-01T09:28:16.884Z,8.62
2018-04-01T09:29:16.982Z,8.61
2018-04-01T09:30:16.902Z,8.6
2018-04-01T09:31:16.925Z,8.6
2018-04-01T09:32:16.928Z,8.6
2018-04-01T09:33:16.900Z,8.62
2018-04-01T09:34:16.932Z,8.63
2018-04-01T09:35:16.953Z,8.65
2018-04-01T09:36:16.892Z,8.66
2018-04-01T09:37:16.967Z,8.67
2018-04-01T09:38:16.941Z,8.66
2018-04-01T09:39:16.874Z,8.65
2018-04-01T09:40:16.931Z,8.62
2018-04-01T09:41:16.900Z,8.63
2018-04-01T09:42:16.933Z,8.63
2018-04-01T09:43:17.038Z,8.65
2018-04-01T09:44:16.914Z,8.66
2018-04-01T09:45:16.920Z,8.66
2018-04-01T09:46:16.915Z,8.72
2018-04-01T09:47:16.953Z,8.75
2018-04-01T09:48:16.904Z,8.78
2018-04-01T09:49:16.935Z,8.78
2018-04-01T09:50:16.910Z,8.8
2018-04-01T09:51:16.909Z,8.84
2018-04-01T09:52:16.982Z,8.86
2018-04-01T09:53:16.949Z,8.89
2018-04-01T09:54:16.899Z,8.92
2018-04-01T09:55:16.909Z,8.92
2018-04-01T09:56:17.689Z,8.88
2018-04-01T09:57:16.893Z,8.88
2018-04-01T09:58:16.894Z,8.9
2018-04-01T09:59:16.937Z,8.93
2018-04-01T10:00:16.902Z,8.97
2018-04-01T10:01:16.907Z,9.02
2018-04-01T10:02:16.912Z,9.02
2018-04-01T10:03:17.004Z,9.06
2018-04-01T10:04:16.885Z,9.09
2018-04-01T10:05:16.918Z,9.17
2018-04-01T10:06:17.018Z,9.17
2018-04-01T10:07:16.913Z,9.2
2018-04-01T10:08:16.888Z,9.23
2018-04-01T10:09:17.768Z,9.23
2018-04-01T10:10:16.916Z,9.22
2018-04-01T10:11:16.926Z,9.18
2018-04-01T10:12:16.912Z,9.23
2018-04-01T10:13:18.713Z,9.25
2018-04-01T10:14:16.897Z,9.3
2018-04-01T10:15:16.893Z,9.32
2018-04-01T10:16:16.914Z,9.31
2018-04-01T10:17:16.890Z,9.35
2018-04-01T10:18:17.801Z,9.35
2018-04-01T10:19:16.915Z,9.35
2018-04-01T10:20:17.402Z,9.37
2018-04-01T10:21:19.209Z,9.36
2018-04-01T10:22:18.099Z,9.34
2018-04-01T10:23:18.887Z,9.36
2018-04-01T10:24:16.898Z,9.38
2018-04-01T10:25:16.916Z,9.38
2018-04-01T10:26:16.924Z,9.42
2018-04-01T10:27:16.924Z,9.37
2018-04-01T10:28:16.948Z,9.41
2018-04-01T10:29:16.898Z,9.41
2018-04-01T10:30:16.922Z,9.41
2018-04-01T10:31:16.947Z,9.42
2018-04-01T10:32:16.925Z,9.37
2018-04-01T10:33:16.960Z,9.34
2018-04-01T10:34:16.946Z,9.32
2018-04-01T10:35:16.976Z,9.29
2018-04-01T10:36:16.938Z,9.28
2018-04-01T10:37:16.917Z,9.25
2018-04-01T10:38:17.009Z,9.24
2018-04-01T10:39:16.910Z,9.21
2018-04-01T10:40:16.912Z,9.14
2018-04-01T10:41:16.948Z,9.17
2018-04-01T10:42:16.910Z,9.22
2018-04-01T10:43:17.334Z,9.16
2018-04-01T10:44:16.956Z,9.18
2018-04-01T10:45:16.949Z,9.27
2018-04-01T10:46:16.905Z,9.31
2018-04-01T10:47:16.933Z,9.4
2018-04-01T10:48:17.103Z,9.45
2018-04-01T10:49:16.916Z,9.51
2018-04-01T10:50:16.928Z,9.58
2018-04-01T10:51:16.932Z,9.57
2018-04-01T10:52:16.916Z,9.64
2018-04-01T10:53:17.112Z,9.59
2018-04-01T10:54:17.034Z,9.68
2018-04-01T10:55:16.917Z,9.74
2018-04-01T10:56:16.930Z,9.78
2018-04-01T10:57:16.934Z,9.83
2018-04-01T10:58:16.978Z,9.83
2018-04-01T10:59:16.953Z,9.88
2018-04-01T11:00:16.912Z,9.8
2018-04-01T11:01:16.961Z,9.76
2018-04-01T11:02:16.931Z,9.68
2018-04-01T11:03:16.938Z,9.64
2018-04-01T11:04:16.911Z,9.62
2018-04-01T11:05:16.938Z,9.6
2018-04-01T11:06:16.937Z,9.63
2018-04-01T11:07:16.935Z,9.67
2018-04-01T11:08:16.974Z,9.66
2018-04-01T11:09:16.952Z,9.61
2018-04-01T11:10:16.946Z,9.52
2018-04-01T11:11:16.993Z,9.6
2018-04-01T11:12:16.960Z,9.63
2018-04-01T11:13:16.967Z,9.61
2018-04-01T11:14:16.940Z,9.57
2018-04-01T11:15:16.966Z,9.59
2018-04-01T11:16:16.949Z,9.74
2018-04-01T11:17:17.069Z,9.9
2018-04-01T11:18:17.021Z,10.02
2018-04-01T11:19:16.978Z,10.16
2018-04-01T11:20:16.927Z,10.3
2018-04-01T11:21:16.938Z,10.38
2018-04-01T11:22:16.951Z,10.45
2018-04-01T11:23:16.947Z,10.53
2018-04-01T11:24:16.958Z,10.53
2018-04-01T11:25:17.035Z,10.61
2018-04-01T11:26:16.929Z,10.61
2018-04-01T11:27:16.948Z,10.58
2018-04-01T11:28:16.966Z,10.52
2018-04-01T11:29:16.936Z,10.47
2018-04-01T11:30:16.936Z,10.53
2018-04-01T11:31:17.390Z,10.55
2018-04-01T11:32:16.957Z,10.58
2018-04-01T11:33:16.986Z,10.55
2018-04-01T11:34:16.977Z,10.49
2018-04-01T11:35:16.951Z,10.48
2018-04-01T11:36:16.963Z,10.4
2018-04-01T11:37:16.929Z,10.35
2018-04-01T11:38:16.920Z,10.22
2018-04-01T11:39:17.308Z,10.19
2018-04-01T11:40:16.987Z,10.19
2018-04-01T11:41:16.957Z,10.17
2018-04-01T11:42:16.936Z,10.04
2018-04-01T11:43:16.981Z,10.05
2018-04-01T11:44:16.970Z,10.13
2018-04-01T11:45:16.943Z,10.15
2018-04-01T11:46:16.948Z,10.18
2018-04-01T11:47:16.957Z,10.22
2018-04-01T11:48:16.938Z,10.17
2018-04-01T11:49:16.964Z,10.1
2018-04-01T11:50:17.005Z,10.06
2018-04-01T11:51:16.928Z,10.01
2018-04-01T11:52:16.945Z,9.97
2018-04-01T11:53:16.965Z,9.94
2018-04-01T11:54:16.940Z,9.93
2018-04-01T11:55:16.947Z,9.9
2018-04-01T11:56:17.028Z,9.79
2018-04-01T11:57:16.951Z,9.55
2018-04-01T11:58:16.945Z,9.45
2018-04-01T11:59:16.975Z,9.25
2018-04-01T12:00:16.952Z,9.12
2018-04-01T12:01:17.006Z,8.98
2018-04-01T12:02:16.973Z,8.95
2018-04-01T12:03:17.192Z,8.9
2018-04-01T12:04:16.933Z,8.98
2018-04-01T12:05:16.947Z,9.07
2018-04-01T12:06:17.101Z,9.17
2018-04-01T12:07:17.001Z,9.31
2018-04-01T12:08:16.931Z,9.42
2018-04-01T12:09:16.930Z,9.41
2018-04-01T12:10:16.947Z,9.47
2018-04-01T12:11:16.986Z,9.46
2018-04-01T12:12:16.930Z,9.51
2018-04-01T12:13:16.929Z,9.44
2018-04-01T12:14:17.356Z,9.43
2018-04-01T12:15:16.959Z,9.48
2018-04-01T12:16:16.966Z,9.54
2018-04-01T12:17:16.990Z,9.56
2018-04-01T12:18:17.296Z,9.61
2018-04-01T12:19:16.964Z,9.68
2018-04-01T12:20:16.970Z,9.65
2018-04-01T12:21:16.968Z,9.67
2018-04-01T12:22:16.978Z,9.69
2018-04-01T12:23:16.950Z,9.73
2018-04-01T12:24:16.994Z,9.75
2018-04-01T12:25:16.981Z,9.81
2018-04-01T12:26:16.986Z,9.79
2018-04-01T12:27:17.047Z,9.83
2018-04-01T12:28:16.957Z,9.87
2018-04-01T12:29:16.963Z,9.76
2018-04-01T12:30:16.953Z,9.73
2018-04-01T12:31:16.993Z,9.71
2018-04-01T12:32:16.967Z,9.69
2018-04-01T12:33:16.947Z,9.69
2018-04-01T12:34:16.957Z,9.68
2018-04-01T12:35:16.949Z,9.68
2018-04-01T12:36:16.965Z,9.67
2018-04-01T12:37:16.972Z,9.63
2018-04-01T12:38:17.004Z,9.6
2018-04-01T12:39:16.973Z,9.56
2018-04-01T12:40:16.990Z,9.53
2018-04-01T12:41:16.952Z,9.54
2018-04-01T12:42:16.997Z,9.56
2018-04-01T12:43:16.993Z,9.5
2018-04-01T12:44:16.984Z,9.47
2018-04-01T12:45:16.974Z,9.43
2018-04-01T12:46:16.990Z,9.45
2018-04-01T12:47:16.983Z,9.48
2018-04-01T12:48:16.983Z,9.42
2018-04-01T12:49:16.989Z,9.35
2018-04-01T12:50:16.999Z,9.32
2018-04-01T12:51:17.027Z,9.28
2018-04-01T12:52:17.018Z,9.26
2018-04-01T12:53:16.976Z,9.19
2018-04-01T12:54:16.979Z,9.24
2018-04-01T12:55:16.959Z,9.25
2018-04-01T12:56:17.305Z,9.25
2018-04-01T12:57:16.980Z,9.21
2018-04-01T12:58:17.035Z,9.24
2018-04-01T12:59:16.954Z,9.18
2018-04-01T13:00:16.986Z,9.15
2018-04-01T13:01:16.978Z,9.17
2018-04-01T13:02:16.996Z,9.13
2018-04-01T13:03:16.995Z,9.07
2018-04-01T13:04:16.978Z,9.05
2018-04-01T13:05:16.956Z,9.02
2018-04-01T13:06:16.989Z,8.98
2018-04-01T13:07:17.036Z,8.99
2018-04-01T13:08:16.980Z,9.01
2018-04-01T13:09:16.995Z,8.95
2018-04-01T13:10:17.049Z,8.97
2018-04-01T13:11:16.975Z,8.95
2018-04-01T13:12:16.993Z,8.93
2018-04-01T13:13:16.995Z,8.97
2018-04-01T13:14:17.006Z,8.92
2018-04-01T13:15:16.954Z,8.99
2018-04-01T13:16:17.016Z,9.05
2018-04-01T13:17:16.996Z,9.1
2018-04-01T13:18:17.096Z,9.12
2018-04-01T13:19:17.039Z,9.17
2018-04-01T13:20:16.997Z,9.18